createdAt,value
2022-12-22T00:01:27.229Z,95144.72
2022-12-22T00:03:53.667Z,95152.81
2022-12-22T00:06:19.947Z,95145.91
2022-12-22T00:08:46.285Z,95140.30
2022-12-22T00:11:12.668Z,95136.91
2022-12-22T00:13:39.006Z,95136.67
2022-12-22T00:16:05.405Z,95137.97
2022-12-22T00:18:31.753Z,95136.72
2022-12-22T00:20:58.127Z,95134.83
2022-12-22T00:23:24.486Z,95133.73
2022-12-22T00:25:50.867Z,95135.25
2022-12-22T00:28:17.236Z,95138.65
2022-12-22T00:30:43.632Z,95139.94
2022-12-22T00:33:09.940Z,95137.36
2022-12-22T00:35:36.335Z,95139.94
2022-12-22T00:38:02.675Z,95132.45
2022-12-22T00:40:29.053Z,95134.33
2022-12-22T00:42:55.425Z,95134.79
2022-12-22T00:45:21.793Z,95140.03
2022-12-22T00:47:48.134Z,95139.24
2022-12-22T00:50:14.516Z,95135.84
2022-12-22T00:52:40.859Z,95131.85
2022-12-22T00:55:07.277Z,95129.28
2022-12-22T00:57:33.638Z,95130.93
2022-12-22T01:00:00.026Z,95127.89
2022-12-22T01:02:26.549Z,95126.14
2022-12-22T01:04:52.750Z,95126.61
2022-12-22T01:07:19.094Z,95121.55
2022-12-22T01:09:45.467Z,95125.08
2022-12-22T01:12:11.845Z,95120.27
2022-12-22T01:14:39.717Z,95114.30
2022-12-22T01:17:04.619Z,95110.44
2022-12-22T01:19:31.016Z,95103.20
2022-12-22T01:21:57.344Z,95101.09
2022-12-22T01:24:23.707Z,95098.98
2022-12-22T01:26:50.092Z,95099.34
2022-12-22T01:29:16.434Z,95098.75
2022-12-22T01:31:43.771Z,95095.81
2022-12-22T01:34:09.152Z,95089.52
2022-12-22T01:36:35.541Z,95092.09
2022-12-22T01:39:01.876Z,95094.20
2022-12-22T01:41:28.279Z,95099.34
2022-12-22T01:43:54.620Z,95094.66
2022-12-22T01:46:21.028Z,95090.34
2022-12-22T01:48:47.338Z,95092.78
2022-12-22T01:51:13.754Z,95094.20
2022-12-22T01:53:40.155Z,95093.24
2022-12-22T01:56:06.539Z,95092.42
2022-12-22T01:58:32.874Z,95089.52
2022-12-22T02:00:59.259Z,95085.52
2022-12-22T02:03:25.656Z,95084.96
2022-12-22T02:05:52.001Z,95080.97
2022-12-22T02:08:18.336Z,95083.91
2022-12-22T02:10:44.715Z,95084.14
2022-12-22T02:13:11.062Z,95083.71
2022-12-22T02:15:39.300Z,95088.09
2022-12-22T02:18:03.787Z,95081.06
2022-12-22T02:20:30.169Z,95092.64
2022-12-22T02:22:56.506Z,95093.14
2022-12-22T02:25:22.899Z,95090.08
2022-12-22T02:27:49.249Z,95091.27
2022-12-22T02:30:15.640Z,95094.76
2022-12-22T02:32:41.983Z,95099.44
2022-12-22T02:35:08.365Z,95092.55
2022-12-22T02:37:34.709Z,95094.76
2022-12-22T02:40:01.097Z,95087.86
2022-12-22T02:42:27.450Z,95081.56
2022-12-22T02:44:53.827Z,95088.45
2022-12-22T02:47:20.184Z,95086.58
2022-12-22T02:49:46.592Z,95083.17
2022-12-22T02:52:12.936Z,95090.20
2022-12-22T02:54:39.332Z,95084.13
2022-12-22T02:57:05.681Z,95081.20
2022-12-22T02:59:32.088Z,95082.48
2022-12-22T03:01:58.624Z,95081.20
2022-12-22T03:04:24.805Z,95082.48
2022-12-22T03:06:51.159Z,95084.59
2022-12-22T03:09:17.580Z,95085.75
2022-12-22T03:11:43.940Z,95089.75
2022-12-22T03:14:10.333Z,95084.47
2022-12-22T03:16:36.707Z,95084.00
2022-12-22T03:19:03.071Z,95085.05
2022-12-22T03:21:29.422Z,95084.59
2022-12-22T03:23:57.027Z,95080.83
2022-12-22T03:26:22.194Z,95082.12
2022-12-22T03:28:48.579Z,95082.12
2022-12-22T03:31:14.980Z,95085.16
2022-12-22T03:33:41.329Z,95086.90
2022-12-22T03:36:07.701Z,95083.41
2022-12-22T03:38:34.097Z,95082.12
2022-12-22T03:41:00.450Z,95082.84
2022-12-22T03:43:26.837Z,95079.78
2022-12-22T03:45:53.182Z,95076.87
2022-12-22T03:48:19.577Z,95082.35
2022-12-22T03:50:45.923Z,95082.35
2022-12-22T03:53:12.317Z,95081.43
2022-12-22T03:55:38.671Z,95080.97
2022-12-22T03:58:05.059Z,95082.72
2022-12-22T04:00:31.421Z,95080.60
2022-12-22T04:02:57.894Z,95085.75
2022-12-22T04:05:24.129Z,95082.72
2022-12-22T04:07:50.558Z,95082.48
2022-12-22T04:10:16.895Z,95089.05
2022-12-22T04:12:43.301Z,95085.88
2022-12-22T04:15:09.614Z,95082.95
2022-12-22T04:17:36.030Z,95081.56
2022-12-22T04:20:02.374Z,95077.47
2022-12-22T04:22:28.843Z,95080.52
2022-12-22T04:24:55.145Z,95074.90
2022-12-22T04:27:21.552Z,95081.33
2022-12-22T04:29:47.888Z,95072.78
2022-12-22T04:32:14.398Z,95073.61
2022-12-22T04:34:40.641Z,95074.44
2022-12-22T04:37:16.524Z,95077.57
2022-12-22T04:39:33.365Z,95075.13
2022-12-22T04:41:59.788Z,95072.19
2022-12-22T04:44:26.123Z,95075.49
2022-12-22T04:46:52.509Z,95077.57
2022-12-22T04:49:18.857Z,95076.52
2022-12-22T04:51:45.261Z,95078.98
2022-12-22T04:54:11.641Z,95083.21
2022-12-22T04:56:38.049Z,95079.81
2022-12-22T04:59:04.393Z,95083.77
2022-12-22T05:01:30.909Z,95084.14
2022-12-22T05:03:57.127Z,95083.08
2022-12-22T05:06:23.512Z,95084.17
2022-12-22T05:08:49.849Z,95087.44
2022-12-22T05:11:16.235Z,95081.73
2022-12-22T05:13:42.581Z,95080.81
2022-12-22T05:16:09.037Z,95083.38
2022-12-22T05:18:35.326Z,95075.66
2022-12-22T05:21:01.709Z,95078.10
2022-12-22T05:23:28.040Z,95081.04
2022-12-22T05:25:54.422Z,95083.48
2022-12-22T05:28:20.761Z,95086.42
2022-12-22T05:30:47.204Z,95084.91
2022-12-22T05:33:13.512Z,95082.92
2022-12-22T05:35:39.891Z,95081.17
2022-12-22T05:38:06.263Z,95086.91
2022-12-22T05:40:32.656Z,95084.11
2022-12-22T05:42:59.032Z,95087.50
2022-12-22T05:45:25.420Z,95088.09
2022-12-22T05:47:51.780Z,95081.06
2022-12-22T05:50:18.144Z,95084.59
2022-12-22T05:52:44.486Z,95082.00
2022-12-22T05:55:10.883Z,95082.72
2022-12-22T05:57:37.221Z,95080.23
2022-12-22T06:00:03.642Z,95086.94
2022-12-22T06:02:30.103Z,95085.65
2022-12-22T06:04:56.363Z,95085.74
2022-12-22T06:07:22.705Z,95093.73
2022-12-22T06:09:49.093Z,95093.13
2022-12-22T06:12:15.520Z,95094.78
2022-12-22T06:14:41.908Z,95094.19
2022-12-22T06:17:08.256Z,95087.52
2022-12-22T06:19:34.671Z,95090.58
2022-12-22T06:22:01.010Z,95089.04
2022-12-22T06:24:27.391Z,95086.23
2022-12-22T06:26:53.755Z,95080.35
2022-12-22T06:29:20.145Z,95082.84
2022-12-22T06:31:46.541Z,95081.92
2022-12-22T06:34:12.898Z,95082.63
2022-12-22T06:36:39.270Z,95091.03
2022-12-22T06:39:05.655Z,95092.20
2022-12-22T06:41:32.005Z,95094.43
2022-12-22T06:43:59.841Z,95090.44
2022-12-22T06:46:24.770Z,95093.00
2022-12-22T06:48:51.139Z,95099.31
2022-12-22T06:51:17.482Z,95093.78
2022-12-22T06:53:43.864Z,95096.00
2022-12-22T06:56:10.210Z,95097.73
2022-12-22T06:58:36.613Z,95096.09
2022-12-22T07:01:02.958Z,95097.50
2022-12-22T07:03:29.441Z,95101.62
2022-12-22T07:05:55.682Z,95103.59
2022-12-22T07:08:22.075Z,95105.34
2022-12-22T07:10:48.414Z,95100.98
2022-12-22T07:13:14.875Z,95103.20
2022-12-22T07:15:41.177Z,95099.80
2022-12-22T07:18:07.630Z,95101.42
2022-12-22T07:20:33.979Z,95099.88
2022-12-22T07:23:00.439Z,95105.19
2022-12-22T07:25:26.789Z,95108.20
2022-12-22T07:27:53.161Z,95109.95
2022-12-22T07:30:19.520Z,95113.58
2022-12-22T07:32:45.904Z,95112.43
2022-12-22T07:35:12.255Z,95113.58
2022-12-22T07:37:38.678Z,95117.13
2022-12-22T07:40:05.032Z,95109.59
2022-12-22T07:42:31.451Z,95109.45
2022-12-22T07:44:57.846Z,95099.45
2022-12-22T07:47:27.279Z,95101.00
2022-12-22T07:49:50.536Z,95100.53
2022-12-22T07:52:16.920Z,95097.95
2022-12-22T07:54:43.270Z,95101.71
2022-12-22T07:57:09.670Z,95101.39
2022-12-22T07:59:37.279Z,95105.94
2022-12-22T08:02:02.574Z,95101.50
2022-12-22T08:04:28.904Z,95095.91
2022-12-22T08:06:55.245Z,95099.16
2022-12-22T08:09:21.764Z,95098.80
2022-12-22T08:11:47.976Z,95101.96
2022-12-22T08:14:14.324Z,95097.30
2022-12-22T08:16:40.743Z,95093.89
2022-12-22T08:19:07.039Z,95096.80
2022-12-22T08:21:33.438Z,95091.39
2022-12-22T08:23:59.792Z,95090.92
2022-12-22T08:26:26.165Z,95099.49
2022-12-22T08:28:52.526Z,95101.96
2022-12-22T08:31:18.939Z,95097.12
2022-12-22T08:33:45.245Z,95093.72
2022-12-22T08:36:11.646Z,95093.50
2022-12-22T08:38:37.997Z,95092.89
2022-12-22T08:41:04.380Z,95094.04
2022-12-22T08:43:30.725Z,95075.22
2022-12-22T08:45:57.119Z,95075.22
2022-12-22T08:48:23.471Z,95090.73
2022-12-22T08:50:49.864Z,95091.45
2022-12-22T08:53:45.174Z,95091.45
2022-12-22T08:55:42.595Z,95083.81
2022-12-22T08:58:08.935Z,95084.64
2022-12-22T09:00:35.363Z,95079.05
2022-12-22T09:03:01.779Z,95078.80
2022-12-22T09:05:28.087Z,95076.22
2022-12-22T09:07:54.434Z,95073.16
2022-12-22T09:10:20.840Z,95065.17
2022-12-22T09:12:47.185Z,95060.72
2022-12-22T09:15:13.572Z,95050.65
2022-12-22T09:17:39.919Z,95038.83
2022-12-22T09:20:06.331Z,95048.32
2022-12-22T09:22:32.676Z,95048.32
2022-12-22T09:24:59.087Z,95043.27
2022-12-22T09:27:25.432Z,95043.27
2022-12-22T09:29:51.819Z,95042.34
2022-12-22T09:32:18.200Z,95042.41
2022-12-22T09:34:45.516Z,95037.17
2022-12-22T09:37:10.953Z,95037.99
2022-12-22T09:39:37.327Z,95040.33
2022-12-22T09:42:04.890Z,95041.22
2022-12-22T09:44:30.052Z,95034.34
2022-12-22T09:46:56.388Z,95026.33
2022-12-22T09:49:22.773Z,95014.52
2022-12-22T09:51:49.116Z,95014.52
2022-12-22T09:54:15.514Z,95025.61
2022-12-22T09:56:41.890Z,95025.61
2022-12-22T09:59:08.303Z,94998.95
2022-12-22T10:01:34.806Z,95021.03
2022-12-22T10:04:01.350Z,95019.11
2022-12-22T10:06:27.411Z,95000.92
2022-12-22T10:08:53.803Z,94982.95
2022-12-22T10:11:20.157Z,94995.56
2022-12-22T10:13:48.665Z,94995.56
2022-12-22T10:16:15.027Z,94979.02
2022-12-22T10:18:41.379Z,94973.23
2022-12-22T10:21:07.747Z,94973.23
2022-12-22T10:23:34.113Z,94967.05
2022-12-22T10:26:27.332Z,94964.55
2022-12-22T10:28:26.827Z,94955.16
2022-12-22T10:30:53.171Z,94956.30
2022-12-22T10:33:19.560Z,94945.70
2022-12-22T10:35:45.915Z,94945.70
2022-12-22T10:38:21.410Z,94954.23
2022-12-22T10:40:38.636Z,94950.68
2022-12-22T10:43:05.032Z,94948.09
2022-12-22T10:45:31.395Z,94934.77
2022-12-22T10:47:57.783Z,94941.14
2022-12-22T10:50:24.073Z,94929.52
2022-12-22T10:52:50.501Z,94926.34
2022-12-22T10:55:16.909Z,94926.34
2022-12-22T10:57:43.243Z,94933.63
2022-12-22T11:00:09.592Z,94920.36
2022-12-22T11:02:36.109Z,94926.17
2022-12-22T11:05:02.308Z,94922.50
2022-12-22T11:07:28.682Z,94920.62
2022-12-22T11:09:55.025Z,94916.39
2022-12-22T11:12:21.430Z,94916.95
2022-12-22T11:14:47.768Z,94914.05
2022-12-22T11:17:14.220Z,94911.94
2022-12-22T11:19:40.501Z,94901.07
2022-12-22T11:22:06.868Z,94901.07
2022-12-22T11:24:33.209Z,94896.11
2022-12-22T11:26:59.593Z,94895.95
2022-12-22T11:29:25.932Z,94899.63
2022-12-22T11:31:52.336Z,94891.58
2022-12-22T11:34:21.301Z,94890.29
2022-12-22T11:36:45.066Z,94880.46
2022-12-22T11:39:11.409Z,94890.20
2022-12-22T11:41:37.780Z,94872.87
2022-12-22T11:44:04.144Z,94872.87
2022-12-22T11:46:30.549Z,94882.81
2022-12-22T11:48:56.857Z,94873.81
2022-12-22T11:51:27.677Z,94872.37
2022-12-22T11:53:49.577Z,94856.26
2022-12-22T11:56:15.975Z,94871.02
2022-12-22T11:58:42.380Z,94867.70
2022-12-22T12:01:22.410Z,94864.09
2022-12-22T12:03:35.179Z,94864.09
2022-12-22T12:06:01.428Z,94857.34
2022-12-22T12:08:27.843Z,94857.34
2022-12-22T12:10:54.173Z,94841.59
2022-12-22T12:13:28.663Z,94841.59
2022-12-22T12:15:46.957Z,94858.75
2022-12-22T12:18:13.306Z,94836.69
2022-12-22T12:20:39.647Z,94850.56
2022-12-22T12:23:06.035Z,94850.56
2022-12-22T12:25:32.429Z,94835.63
2022-12-22T12:27:58.791Z,94838.39
2022-12-22T12:30:40.437Z,94838.39
2022-12-22T12:32:51.553Z,94847.48
2022-12-22T12:35:17.865Z,94848.50
2022-12-22T12:37:44.281Z,94832.84
2022-12-22T12:40:10.675Z,94847.65
2022-12-22T12:42:37.030Z,94830.11
2022-12-22T12:45:03.404Z,94827.99
2022-12-22T12:47:29.785Z,94827.99
2022-12-22T12:49:56.155Z,94844.56
2022-12-22T12:52:22.534Z,94838.05
2022-12-22T12:54:48.908Z,94836.91
2022-12-22T12:57:16.325Z,94836.91
2022-12-22T12:59:41.672Z,94822.22
2022-12-22T13:02:08.229Z,94822.22
2022-12-22T13:04:34.431Z,94837.27
2022-12-22T13:07:00.838Z,94837.27
2022-12-22T13:12:11.749Z,94811.63
2022-12-22T13:14:20.051Z,94834.30
2022-12-22T13:16:46.434Z,94830.50
2022-12-22T13:19:12.688Z,94828.00
2022-12-22T13:21:55.211Z,94826.01
2022-12-22T13:24:24.082Z,94825.81
2022-12-22T13:26:31.821Z,94826.11
2022-12-22T13:28:58.157Z,94821.53
2022-12-22T13:31:24.604Z,94815.77
2022-12-22T13:36:29.174Z,94816.69
2022-12-22T13:38:55.587Z,94819.89
2022-12-22T13:41:27.202Z,94819.89
2022-12-22T13:43:48.351Z,94823.14
2022-12-22T13:46:14.755Z,94827.67
2022-12-22T13:48:44.743Z,94827.67
2022-12-22T13:51:07.452Z,94801.95
2022-12-22T13:56:00.219Z,94813.59
2022-12-22T13:58:26.589Z,94813.59
2022-12-22T14:00:52.976Z,94809.09
2022-12-22T14:03:41.709Z,94787.48
2022-12-22T14:05:45.747Z,94787.48
2022-12-22T14:08:12.074Z,94813.91
2022-12-22T14:10:38.459Z,94813.55
2022-12-22T14:13:04.906Z,94818.27
2022-12-22T14:15:31.267Z,94812.96
2022-12-22T14:17:57.641Z,94812.96
2022-12-22T14:20:24.075Z,94788.09
2022-12-22T14:22:50.471Z,94810.23
2022-12-22T14:25:16.830Z,94803.77
2022-12-22T14:27:43.216Z,94806.82
2022-12-22T14:30:09.566Z,94795.87
2022-12-22T14:32:35.950Z,94797.17
2022-12-22T14:35:02.580Z,94800.75
2022-12-22T14:37:32.936Z,94800.75
2022-12-22T14:39:55.338Z,94803.41
2022-12-22T14:42:21.716Z,94796.05
2022-12-22T14:44:48.054Z,94782.19
2022-12-22T14:47:14.435Z,94808.47
2022-12-22T14:49:40.867Z,94813.64
2022-12-22T14:52:07.251Z,94799.23
2022-12-22T14:54:33.577Z,94799.23
2022-12-22T14:57:00.008Z,94808.76
2022-12-22T14:59:26.348Z,94809.92
2022-12-22T15:01:52.900Z,94814.12
2022-12-22T15:04:19.091Z,94815.42
2022-12-22T15:06:45.486Z,94815.42
2022-12-22T15:09:11.918Z,94818.16
2022-12-22T15:11:38.245Z,94818.16
2022-12-22T15:14:04.606Z,94818.98
2022-12-22T15:16:31.033Z,94818.98
2022-12-22T15:18:57.327Z,94820.20
2022-12-22T15:21:24.903Z,94818.78
2022-12-22T15:23:50.038Z,94822.89
2022-12-22T15:26:16.451Z,94810.38
2022-12-22T15:28:42.810Z,94805.41
2022-12-22T15:31:09.220Z,94805.41
2022-12-22T15:33:35.532Z,94819.00
2022-12-22T15:36:01.937Z,94819.00
2022-12-22T15:38:32.174Z,94823.14
2022-12-22T15:40:54.766Z,94819.88
2022-12-22T15:45:47.508Z,94829.33
2022-12-22T15:48:13.829Z,94808.56
2022-12-22T15:50:40.235Z,94842.62
2022-12-22T15:53:06.580Z,94842.62
2022-12-22T15:55:32.994Z,94840.06
2022-12-22T15:57:59.354Z,94842.88
2022-12-22T16:00:25.729Z,94828.92
2022-12-22T16:02:52.297Z,94828.36
2022-12-22T16:05:18.525Z,94844.47
2022-12-22T16:07:44.851Z,94841.88
2022-12-22T16:10:11.249Z,94827.63
2022-12-22T16:12:37.629Z,94827.63
2022-12-22T16:15:04.003Z,94843.94
2022-12-22T16:17:30.347Z,94828.45
2022-12-22T16:19:56.742Z,94839.89
2022-12-22T16:22:24.292Z,94838.39
2022-12-22T16:24:49.503Z,94837.39
2022-12-22T16:27:15.842Z,94837.39
2022-12-22T16:29:43.286Z,94849.45
2022-12-22T16:32:15.327Z,94858.02
2022-12-22T16:34:36.054Z,94858.02
2022-12-22T16:37:02.397Z,94849.86
2022-12-22T16:39:28.771Z,94828.30
2022-12-22T16:41:59.888Z,94854.35
2022-12-22T16:44:23.993Z,94843.94
2022-12-22T16:46:50.388Z,94849.01
2022-12-22T16:49:20.116Z,94849.98
2022-12-22T16:51:43.118Z,94835.08
2022-12-22T16:54:10.746Z,94822.78
2022-12-22T16:56:35.869Z,94827.27
2022-12-22T16:59:03.215Z,94840.51
2022-12-22T17:01:28.695Z,94840.51
2022-12-22T17:03:55.057Z,94837.78
2022-12-22T17:06:21.445Z,94848.10
2022-12-22T17:08:50.707Z,94835.05
2022-12-22T17:11:17.053Z,94842.09
2022-12-22T17:13:43.441Z,94844.93
2022-12-22T17:16:09.917Z,94830.61
2022-12-22T17:18:36.232Z,94830.61
2022-12-22T17:21:02.561Z,94845.71
2022-12-22T17:23:28.942Z,94851.55
2022-12-22T17:25:55.276Z,94849.84
2022-12-22T17:28:21.675Z,94849.84
2022-12-22T17:30:48.068Z,94850.22
2022-12-22T17:33:14.427Z,94848.93
2022-12-22T17:35:40.772Z,94848.51
2022-12-22T17:38:07.180Z,94845.70
2022-12-22T17:40:33.554Z,94849.47
2022-12-22T17:42:59.924Z,94848.17
2022-12-22T17:45:26.269Z,94838.20
2022-12-22T17:47:52.666Z,94839.97
2022-12-22T17:50:19.005Z,94839.97
2022-12-22T17:52:45.421Z,94844.09
2022-12-22T17:55:11.795Z,94849.02
2022-12-22T17:57:38.183Z,94844.84
2022-12-22T18:00:04.532Z,94843.08
2022-12-22T18:02:31.062Z,94846.58
2022-12-22T18:04:57.303Z,94844.98
2022-12-22T18:07:23.712Z,94834.92
2022-12-22T18:09:50.107Z,94847.20
2022-12-22T18:12:16.504Z,94844.62
2022-12-22T18:14:42.885Z,94840.55
2022-12-22T18:17:09.316Z,94843.27
2022-12-22T18:19:35.660Z,94851.38
2022-12-22T18:22:02.063Z,94852.77
2022-12-22T18:24:28.402Z,94857.14
2022-12-22T18:26:54.814Z,94853.74
2022-12-22T18:29:21.156Z,94849.73
2022-12-22T18:31:47.711Z,94857.61
2022-12-22T18:34:14.005Z,94858.08
2022-12-22T18:36:40.380Z,94854.00
2022-12-22T18:39:10.543Z,94855.14
2022-12-22T18:41:33.123Z,94853.74
2022-12-22T18:43:59.479Z,94861.08
2022-12-22T18:46:25.888Z,94862.63
2022-12-22T18:48:52.227Z,94862.63
2022-12-22T18:51:18.590Z,94862.63
2022-12-22T18:53:44.963Z,94860.44
2022-12-22T18:56:11.347Z,94862.20
2022-12-22T18:58:37.730Z,94861.16
2022-12-22T19:01:04.165Z,94867.25
2022-12-22T19:03:30.524Z,94863.39
2022-12-22T19:05:56.894Z,94862.09
2022-12-22T19:08:23.236Z,94864.93
2022-12-22T19:10:49.624Z,94863.64
2022-12-22T19:13:16.015Z,94860.95
2022-12-22T19:15:42.369Z,94860.02
2022-12-22T19:18:08.731Z,94854.98
2022-12-22T19:20:35.111Z,94859.10
2022-12-22T19:23:01.455Z,94866.02
2022-12-22T19:25:27.877Z,94859.56
2022-12-22T19:27:54.239Z,94860.39
2022-12-22T19:30:20.633Z,94863.79
2022-12-22T19:32:47.114Z,94861.21
2022-12-22T19:35:13.388Z,94859.47
2022-12-22T19:37:39.760Z,94864.42
2022-12-22T19:40:06.167Z,94869.07
2022-12-22T19:42:32.504Z,94862.05
2022-12-22T19:44:58.990Z,94862.38
2022-12-22T19:47:25.333Z,94864.23
2022-12-22T19:49:51.755Z,94865.66
2022-12-22T19:52:18.111Z,94860.72
2022-12-22T19:54:44.503Z,94857.92
2022-12-22T19:57:10.941Z,94864.13
2022-12-22T19:59:38.959Z,94866.70
2022-12-22T20:02:03.850Z,94867.27
2022-12-22T20:04:30.084Z,94865.73
2022-12-22T20:06:56.456Z,94867.42
2022-12-22T20:09:22.817Z,94867.38
2022-12-22T20:11:49.163Z,94875.51
2022-12-22T20:14:15.581Z,94869.41
2022-12-22T20:16:41.980Z,94871.05
2022-12-22T20:19:08.327Z,94872.60
2022-12-22T20:21:35.866Z,94874.22
2022-12-22T20:24:01.075Z,94875.08
2022-12-22T20:26:27.433Z,94880.26
2022-12-22T20:28:53.840Z,94879.06
2022-12-22T20:31:20.203Z,94877.48
2022-12-22T20:33:46.589Z,94875.27
2022-12-22T20:36:14.025Z,94882.70
2022-12-22T20:38:39.332Z,94882.27
2022-12-22T20:41:05.710Z,94885.22
2022-12-22T20:43:32.115Z,94881.84
2022-12-22T20:45:58.496Z,94870.59
2022-12-22T20:48:24.836Z,94878.90
2022-12-22T20:50:51.226Z,94875.88
2022-12-22T20:53:17.617Z,94877.00
2022-12-22T20:55:43.991Z,94873.03
2022-12-22T20:58:10.380Z,94878.89
2022-12-22T21:00:36.758Z,94879.36
2022-12-22T21:03:03.290Z,94889.31
2022-12-22T21:05:29.539Z,94887.86
2022-12-22T21:07:55.941Z,94887.13
2022-12-22T21:10:22.284Z,94882.62
2022-12-22T21:12:48.702Z,94884.16
2022-12-22T21:15:15.044Z,94885.19
2022-12-22T21:17:45.927Z,94882.83
2022-12-22T21:20:07.833Z,94879.11
2022-12-22T21:22:34.217Z,94882.67
2022-12-22T21:25:00.605Z,94880.73
2022-12-22T21:27:26.981Z,94884.64
2022-12-22T21:29:55.797Z,94879.70
2022-12-22T21:32:22.219Z,94878.21
2022-12-22T21:34:48.562Z,94869.95
2022-12-22T21:37:14.965Z,94867.95
2022-12-22T21:39:41.311Z,94873.51
2022-12-22T21:42:07.802Z,94873.66
2022-12-22T21:44:34.098Z,94876.35
2022-12-22T21:47:00.460Z,94876.47
2022-12-22T21:49:26.817Z,94876.12
2022-12-22T21:51:53.219Z,94871.53
2022-12-22T21:54:19.567Z,94868.79
2022-12-22T21:56:45.980Z,94865.93
2022-12-22T21:59:12.362Z,94865.18
2022-12-22T22:01:38.817Z,94866.95
2022-12-22T22:04:05.086Z,94859.81
2022-12-22T22:06:31.548Z,94862.38
2022-12-22T22:08:57.900Z,94860.30
2022-12-22T22:11:24.246Z,94858.84
2022-12-22T22:13:50.653Z,94859.34
2022-12-22T22:16:19.432Z,94861.81
2022-12-22T22:18:43.415Z,94861.04
2022-12-22T22:21:09.765Z,94858.96
2022-12-22T22:23:36.180Z,94862.39
2022-12-22T22:26:02.532Z,94853.23
2022-12-22T22:28:29.004Z,94861.47
2022-12-22T22:30:55.385Z,94857.78
2022-12-22T22:33:21.740Z,94853.48
2022-12-22T22:35:48.097Z,94852.88
2022-12-22T22:38:14.470Z,94853.38
2022-12-22T22:40:40.842Z,94847.26
2022-12-22T22:43:07.232Z,94852.09
2022-12-22T22:45:33.613Z,94843.64
2022-12-22T22:48:00.002Z,94844.47
2022-12-22T22:50:26.350Z,94848.69
2022-12-22T22:52:52.724Z,94840.49
2022-12-22T22:55:19.087Z,94848.94
2022-12-22T22:57:45.484Z,94838.13
2022-12-22T23:00:11.878Z,94829.94
2022-12-22T23:02:38.459Z,94831.12
2022-12-22T23:05:04.629Z,94831.37
2022-12-22T23:07:31.049Z,94832.98
2022-12-22T23:09:57.419Z,94835.91
2022-12-22T23:12:23.835Z,94829.69
2022-12-22T23:14:50.181Z,94820.34
2022-12-22T23:17:16.577Z,94822.45
2022-12-22T23:19:42.945Z,94814.36
2022-12-22T23:22:09.335Z,94813.97
2022-12-22T23:24:35.673Z,94809.67
2022-12-22T23:27:02.071Z,94801.95
2022-12-22T23:29:28.415Z,94804.27
2022-12-22T23:31:54.847Z,94795.39
2022-12-22T23:34:21.202Z,94783.80
2022-12-22T23:36:47.587Z,94784.73
2022-12-22T23:39:13.948Z,94786.38
2022-12-22T23:41:40.408Z,94778.28
2022-12-22T23:44:06.734Z,94772.75
2022-12-22T23:46:33.220Z,94771.95
2022-12-22T23:48:59.541Z,94772.66
2022-12-22T23:51:25.904Z,94780.16
2022-12-22T23:53:52.302Z,94773.24
2022-12-22T23:56:18.664Z,94775.47
2022-12-22T23:58:48.222Z,94773.13
